sensor_id;sensor_type;location;lat;lon;timestamp;pressure;altitude;pressure_sealevel;temperature;humidity
21824;BME280;11074;48.596;9.238;2023-02-18T00:00:19;99204.25;;;12.80;83.54
21824;BME280;11074;48.596;9.238;2023-02-18T00:02:46;99203.28;;;12.86;83.24
21824;BME280;11074;48.596;9.238;2023-02-18T00:05:13;99200.94;;;12.89;83.07
21824;BME280;11074;48.596;9.238;2023-02-18T00:07:40;99213.97;;;12.97;82.47
21824;BME280;11074;48.596;9.238;2023-02-18T00:10:11;99204.66;;;12.88;82.52
21824;BME280;11074;48.596;9.238;2023-02-18T00:12:37;99196.13;;;12.91;82.30
21824;BME280;11074;48.596;9.238;2023-02-18T00:15:04;99201.28;;;12.93;82.76
21824;BME280;11074;48.596;9.238;2023-02-18T00:17:31;99188.00;;;12.86;82.93
21824;BME280;11074;48.596;9.238;2023-02-18T00:19:57;99189.72;;;12.92;82.90
21824;BME280;11074;48.596;9.238;2023-02-18T00:22:24;99185.41;;;12.91;82.24
21824;BME280;11074;48.596;9.238;2023-02-18T00:24:50;99185.41;;;12.91;82.05
21824;BME280;11074;48.596;9.238;2023-02-18T00:27:16;99188.56;;;12.88;82.45
21824;BME280;11074;48.596;9.238;2023-02-18T00:29:41;99187.78;;;12.88;82.27
21824;BME280;11074;48.596;9.238;2023-02-18T00:32:07;99170.94;;;12.92;82.21
21824;BME280;11074;48.596;9.238;2023-02-18T00:34:33;99166.03;;;12.89;81.84
21824;BME280;11074;48.596;9.238;2023-02-18T00:36:58;99175.25;;;12.93;81.89
21824;BME280;11074;48.596;9.238;2023-02-18T00:39:24;99180.03;;;12.91;82.10
21824;BME280;11074;48.596;9.238;2023-02-18T00:41:50;99179.63;;;12.83;82.34
21824;BME280;11074;48.596;9.238;2023-02-18T00:44:16;99173.19;;;12.84;81.93
21824;BME280;11074;48.596;9.238;2023-02-18T00:46:42;99175.66;;;12.85;82.14
21824;BME280;11074;48.596;9.238;2023-02-18T00:49:08;99179.72;;;12.88;81.74
21824;BME280;11074;48.596;9.238;2023-02-18T00:51:34;99180.28;;;12.90;81.91
21824;BME280;11074;48.596;9.238;2023-02-18T00:54:00;99167.69;;;12.90;81.78
21824;BME280;11074;48.596;9.238;2023-02-18T00:56:26;99165.38;;;12.99;81.24
21824;BME280;11074;48.596;9.238;2023-02-18T00:58:52;99168.41;;;13.02;81.06
21824;BME280;11074;48.596;9.238;2023-02-18T01:01:19;99154.66;;;12.99;81.27
21824;BME280;11074;48.596;9.238;2023-02-18T01:03:45;99157.25;;;12.94;81.51
21824;BME280;11074;48.596;9.238;2023-02-18T01:06:12;99167.19;;;12.93;81.33
21824;BME280;11074;48.596;9.238;2023-02-18T01:08:39;99160.28;;;12.97;81.03
21824;BME280;11074;48.596;9.238;2023-02-18T01:11:07;99158.91;;;12.95;81.63
21824;BME280;11074;48.596;9.238;2023-02-18T01:13:34;99152.97;;;12.93;81.24
21824;BME280;11074;48.596;9.238;2023-02-18T01:16:00;99152.63;;;12.89;81.40
21824;BME280;11074;48.596;9.238;2023-02-18T01:18:26;99149.28;;;12.82;81.91
21824;BME280;11074;48.596;9.238;2023-02-18T01:20:53;99149.28;;;12.82;81.93
21824;BME280;11074;48.596;9.238;2023-02-18T01:23:18;99148.91;;;12.90;81.12
21824;BME280;11074;48.596;9.238;2023-02-18T01:25:45;99144.34;;;12.91;81.30
21824;BME280;11074;48.596;9.238;2023-02-18T01:28:13;99131.56;;;12.81;81.52
21824;BME280;11074;48.596;9.238;2023-02-18T01:30:40;99139.59;;;12.81;81.77
21824;BME280;11074;48.596;9.238;2023-02-18T01:33:06;99134.22;;;12.81;81.26
21824;BME280;11074;48.596;9.238;2023-02-18T01:35:37;99132.72;;;12.85;81.38
21824;BME280;11074;48.596;9.238;2023-02-18T01:38:03;99131.63;;;12.86;80.99
21824;BME280;11074;48.596;9.238;2023-02-18T01:40:29;99131.31;;;12.83;81.31
21824;BME280;11074;48.596;9.238;2023-02-18T01:42:55;99135.78;;;12.94;80.67
21824;BME280;11074;48.596;9.238;2023-02-18T01:48:30;99122.38;;;12.94;80.22
21824;BME280;11074;48.596;9.238;2023-02-18T01:51:25;99129.22;;;13.01;80.49
21824;BME280;11074;48.596;9.238;2023-02-18T01:53:59;99135.88;;;12.99;80.05
21824;BME280;11074;48.596;9.238;2023-02-18T01:56:39;99141.81;;;13.01;79.81
21824;BME280;11074;48.596;9.238;2023-02-18T01:59:23;99134.00;;;12.99;79.53
21824;BME280;11074;48.596;9.238;2023-02-18T02:01:50;99139.28;;;12.94;80.06
21824;BME280;11074;48.596;9.238;2023-02-18T02:04:17;99128.25;;;12.91;80.13
21824;BME280;11074;48.596;9.238;2023-02-18T02:06:43;99123.28;;;12.83;80.46
21824;BME280;11074;48.596;9.238;2023-02-18T02:09:14;99121.72;;;12.87;79.75
21824;BME280;11074;48.596;9.238;2023-02-18T02:23:38;99095.84;;;12.64;80.58
21824;BME280;11074;48.596;9.238;2023-02-18T02:29:31;99106.06;;;12.67;80.54
21824;BME280;11074;48.596;9.238;2023-02-18T02:35:25;99097.56;;;12.70;80.72
21824;BME280;11074;48.596;9.238;2023-02-18T02:38:16;99095.59;;;12.65;80.39
21824;BME280;11074;48.596;9.238;2023-02-18T02:43:55;99100.88;;;12.60;80.63
21824;BME280;11074;48.596;9.238;2023-02-18T02:46:54;99104.13;;;12.62;80.69
21824;BME280;11074;48.596;9.238;2023-02-18T02:49:36;99094.22;;;12.63;80.39
21824;BME280;11074;48.596;9.238;2023-02-18T02:52:21;99089.75;;;12.68;80.39
21824;BME280;11074;48.596;9.238;2023-02-18T02:54:48;99087.72;;;12.75;80.07
21824;BME280;11074;48.596;9.238;2023-02-18T02:59:51;99092.13;;;12.82;79.47
21824;BME280;11074;48.596;9.238;2023-02-18T03:03:14;99084.56;;;12.78;79.58
21824;BME280;11074;48.596;9.238;2023-02-18T03:08:43;99082.84;;;12.72;79.90
21824;BME280;11074;48.596;9.238;2023-02-18T03:11:17;99077.38;;;12.67;80.05
21824;BME280;11074;48.596;9.238;2023-02-18T03:14:19;99090.38;;;12.59;80.84
21824;BME280;11074;48.596;9.238;2023-02-18T03:16:59;99076.88;;;12.54;80.93
21824;BME280;11074;48.596;9.238;2023-02-18T03:19:32;99079.41;;;12.60;80.58
21824;BME280;11074;48.596;9.238;2023-02-18T03:22:33;99083.22;;;12.64;80.28
21824;BME280;11074;48.596;9.238;2023-02-18T03:25:02;99083.00;;;12.66;80.04
21824;BME280;11074;48.596;9.238;2023-02-18T03:28:12;99078.47;;;12.66;80.32
21824;BME280;11074;48.596;9.238;2023-02-18T03:30:44;99076.47;;;12.62;80.54
21824;BME280;11074;48.596;9.238;2023-02-18T03:33:17;99077.69;;;12.54;80.74
21824;BME280;11074;48.596;9.238;2023-02-18T03:35:46;99066.53;;;12.46;81.02
21824;BME280;11074;48.596;9.238;2023-02-18T03:38:28;99069.56;;;12.49;80.99
21824;BME280;11074;48.596;9.238;2023-02-18T03:40:56;99048.75;;;12.40;81.16
21824;BME280;11074;48.596;9.238;2023-02-18T03:43:22;99056.03;;;12.28;81.88
21824;BME280;11074;48.596;9.238;2023-02-18T03:45:48;99046.63;;;12.25;82.02
21824;BME280;11074;48.596;9.238;2023-02-18T03:48:14;99045.00;;;12.24;81.92
21824;BME280;11074;48.596;9.238;2023-02-18T03:50:39;99036.72;;;12.26;81.69
21824;BME280;11074;48.596;9.238;2023-02-18T03:53:06;99042.47;;;12.18;81.92
21824;BME280;11074;48.596;9.238;2023-02-18T03:55:32;99045.22;;;12.23;81.60
21824;BME280;11074;48.596;9.238;2023-02-18T03:57:58;99039.38;;;12.26;81.62
21824;BME280;11074;48.596;9.238;2023-02-18T04:00:24;99036.53;;;12.15;81.45
21824;BME280;11074;48.596;9.238;2023-02-18T04:02:49;99042.38;;;12.12;81.78
21824;BME280;11074;48.596;9.238;2023-02-18T04:05:15;99045.97;;;12.18;81.65
21824;BME280;11074;48.596;9.238;2023-02-18T04:07:41;99050.25;;;12.19;81.51
21824;BME280;11074;48.596;9.238;2023-02-18T04:10:07;99049.22;;;12.20;81.50
21824;BME280;11074;48.596;9.238;2023-02-18T04:12:33;99054.09;;;12.23;81.02
21824;BME280;11074;48.596;9.238;2023-02-18T04:14:58;99062.88;;;12.19;81.50
21824;BME280;11074;48.596;9.238;2023-02-18T04:17:24;99048.22;;;12.09;81.54
21824;BME280;11074;48.596;9.238;2023-02-18T04:19:50;99054.38;;;12.10;81.59
21824;BME280;11074;48.596;9.238;2023-02-18T04:22:16;99058.16;;;11.97;82.28
21824;BME280;11074;48.596;9.238;2023-02-18T04:24:41;99052.22;;;11.95;81.40
21824;BME280;11074;48.596;9.238;2023-02-18T04:27:07;99048.84;;;12.00;81.96
21824;BME280;11074;48.596;9.238;2023-02-18T04:29:33;99055.72;;;11.96;81.92
21824;BME280;11074;48.596;9.238;2023-02-18T04:31:59;99053.59;;;11.98;82.05
21824;BME280;11074;48.596;9.238;2023-02-18T04:34:25;99058.16;;;11.97;82.26
21824;BME280;11074;48.596;9.238;2023-02-18T04:36:50;99047.00;;;11.89;81.93
21824;BME280;11074;48.596;9.238;2023-02-18T04:39:16;99051.22;;;11.85;82.29
21824;BME280;11074;48.596;9.238;2023-02-18T04:41:42;99043.16;;;11.85;82.66
21824;BME280;11074;48.596;9.238;2023-02-18T04:44:07;99052.50;;;11.82;82.84
21824;BME280;11074;48.596;9.238;2023-02-18T04:46:33;99048.44;;;11.80;82.43
21824;BME280;11074;48.596;9.238;2023-02-18T04:48:59;99051.69;;;11.82;81.74
21824;BME280;11074;48.596;9.238;2023-02-18T04:51:24;99035.28;;;11.67;82.66
21824;BME280;11074;48.596;9.238;2023-02-18T04:53:50;99053.13;;;11.73;82.75
21824;BME280;11074;48.596;9.238;2023-02-18T04:56:16;99058.69;;;11.71;83.29
21824;BME280;11074;48.596;9.238;2023-02-18T04:58:41;99051.34;;;11.67;82.48
21824;BME280;11074;48.596;9.238;2023-02-18T05:01:07;99055.06;;;11.66;82.83
21824;BME280;11074;48.596;9.238;2023-02-18T05:03:33;99050.44;;;11.61;83.30
21824;BME280;11074;48.596;9.238;2023-02-18T05:05:58;99055.31;;;11.64;83.52
21824;BME280;11074;48.596;9.238;2023-02-18T05:08:24;99055.88;;;11.66;83.54
21824;BME280;11074;48.596;9.238;2023-02-18T05:10:50;99046.47;;;11.64;83.10
21824;BME280;11074;48.596;9.238;2023-02-18T05:13:16;99041.47;;;11.55;82.79
21824;BME280;11074;48.596;9.238;2023-02-18T05:15:41;99051.72;;;11.47;83.79
21824;BME280;11074;48.596;9.238;2023-02-18T05:18:07;99058.16;;;11.46;83.79
21824;BME280;11074;48.596;9.238;2023-02-18T05:20:33;99051.25;;;11.50;83.36
21824;BME280;11074;48.596;9.238;2023-02-18T05:22:59;99046.16;;;11.48;83.56
21824;BME280;11074;48.596;9.238;2023-02-18T05:25:25;99043.97;;;11.34;83.58
21824;BME280;11074;48.596;9.238;2023-02-18T05:27:51;99043.75;;;11.35;84.93
21824;BME280;11074;48.596;9.238;2023-02-18T05:30:16;99050.47;;;11.38;84.78
21824;BME280;11074;48.596;9.238;2023-02-18T05:32:42;99042.19;;;11.39;84.52
21824;BME280;11074;48.596;9.238;2023-02-18T05:35:08;99042.91;;;11.46;84.41
21824;BME280;11074;48.596;9.238;2023-02-18T05:37:34;99041.53;;;11.44;84.39
21824;BME280;11074;48.596;9.238;2023-02-18T05:40:00;99044.09;;;11.39;84.44
21824;BME280;11074;48.596;9.238;2023-02-18T05:42:26;99038.13;;;11.37;84.75
21824;BME280;11074;48.596;9.238;2023-02-18T05:44:51;99038.38;;;11.35;84.36
21824;BME280;11074;48.596;9.238;2023-02-18T05:47:17;99041.41;;;11.39;84.53
21824;BME280;11074;48.596;9.238;2023-02-18T05:49:43;99053.03;;;11.44;84.12
21824;BME280;11074;48.596;9.238;2023-02-18T05:52:10;99046.06;;;11.43;83.93
21824;BME280;11074;48.596;9.238;2023-02-18T05:54:38;99048.00;;;11.48;84.61
21824;BME280;11074;48.596;9.238;2023-02-18T05:57:04;99047.00;;;11.37;84.08
21824;BME280;11074;48.596;9.238;2023-02-18T05:59:30;99046.06;;;11.43;84.81
21824;BME280;11074;48.596;9.238;2023-02-18T06:01:56;99047.81;;;11.49;84.62
21824;BME280;11074;48.596;9.238;2023-02-18T06:04:22;99045.81;;;11.45;84.76
21824;BME280;11074;48.596;9.238;2023-02-18T06:06:48;99039.63;;;11.44;84.59
21824;BME280;11074;48.596;9.238;2023-02-18T06:09:14;99047.34;;;11.41;84.61
21824;BME280;11074;48.596;9.238;2023-02-18T06:11:40;99048.25;;;11.46;85.07
21824;BME280;11074;48.596;9.238;2023-02-18T06:14:06;99044.97;;;11.44;84.88
21824;BME280;11074;48.596;9.238;2023-02-18T06:16:32;99049.44;;;11.39;85.22
21824;BME280;11074;48.596;9.238;2023-02-18T06:18:57;99046.63;;;11.34;85.20
21824;BME280;11074;48.596;9.238;2023-02-18T06:21:24;99051.06;;;11.40;84.64
21824;BME280;11074;48.596;9.238;2023-02-18T06:23:50;99032.69;;;11.32;84.58
21824;BME280;11074;48.596;9.238;2023-02-18T06:26:15;99029.44;;;11.18;86.03
21824;BME280;11074;48.596;9.238;2023-02-18T06:28:43;99029.69;;;11.17;86.17
21824;BME280;11074;48.596;9.238;2023-02-18T06:31:09;99040.50;;;11.22;85.67
21824;BME280;11074;48.596;9.238;2023-02-18T06:33:34;99030.50;;;11.17;86.15
21824;BME280;11074;48.596;9.238;2023-02-18T06:36:06;99039.91;;;11.20;85.42
21824;BME280;11074;48.596;9.238;2023-02-18T06:38:34;99043.41;;;11.20;86.13
21824;BME280;11074;48.596;9.238;2023-02-18T06:41:01;99037.56;;;11.23;85.09
21824;BME280;11074;48.596;9.238;2023-02-18T06:43:27;99042.25;;;11.28;85.78
21824;BME280;11074;48.596;9.238;2023-02-18T06:45:52;99044.56;;;11.24;85.69
21824;BME280;11074;48.596;9.238;2023-02-18T06:48:19;99034.09;;;11.23;85.47
21824;BME280;11074;48.596;9.238;2023-02-18T06:50:45;99040.25;;;11.23;85.69
21824;BME280;11074;48.596;9.238;2023-02-18T06:53:11;99047.00;;;11.26;85.06
21824;BME280;11074;48.596;9.238;2023-02-18T06:55:37;99044.31;;;11.26;85.38
21824;BME280;11074;48.596;9.238;2023-02-18T06:58:03;99043.84;;;11.29;85.66
21824;BME280;11074;48.596;9.238;2023-02-18T07:00:30;99047.69;;;11.33;85.69
21824;BME280;11074;48.596;9.238;2023-02-18T07:02:56;99047.59;;;11.28;85.31
21824;BME280;11074;48.596;9.238;2023-02-18T07:05:22;99050.03;;;11.29;85.22
21824;BME280;11074;48.596;9.238;2023-02-18T07:07:48;99051.41;;;11.32;84.56
21824;BME280;11074;48.596;9.238;2023-02-18T07:10:13;99056.41;;;11.40;84.61
21824;BME280;11074;48.596;9.238;2023-02-18T07:12:39;99052.13;;;11.39;84.51
21824;BME280;11074;48.596;9.238;2023-02-18T07:15:05;99061.53;;;11.41;84.16
21824;BME280;11074;48.596;9.238;2023-02-18T07:17:31;99051.06;;;11.40;84.08
21824;BME280;11074;48.596;9.238;2023-02-18T07:19:56;99045.59;;;11.46;83.77
21824;BME280;11074;48.596;9.238;2023-02-18T07:22:22;99046.97;;;11.49;83.72
21824;BME280;11074;48.596;9.238;2023-02-18T07:24:52;99044.16;;;11.55;83.59
21824;BME280;11074;48.596;9.238;2023-02-18T07:27:19;99042.66;;;11.60;83.60
21824;BME280;11074;48.596;9.238;2023-02-18T07:29:45;99048.09;;;11.65;83.33
21824;BME280;11074;48.596;9.238;2023-02-18T07:32:11;99039.59;;;11.68;83.29
21824;BME280;11074;48.596;9.238;2023-02-18T07:34:37;99039.47;;;11.74;82.82
21824;BME280;11074;48.596;9.238;2023-02-18T07:37:03;99035.88;;;11.69;82.97
21824;BME280;11074;48.596;9.238;2023-02-18T07:39:41;99038.78;;;11.79;82.97
21824;BME280;11074;48.596;9.238;2023-02-18T07:42:08;99028.63;;;11.81;82.92
21824;BME280;11074;48.596;9.238;2023-02-18T07:44:36;99043.91;;;11.80;83.19
21824;BME280;11074;48.596;9.238;2023-02-18T07:47:04;99036.78;;;11.86;82.94
21824;BME280;11074;48.596;9.238;2023-02-18T07:49:31;99031.31;;;11.81;83.26
21824;BME280;11074;48.596;9.238;2023-02-18T07:51:57;99030.94;;;11.89;82.93
21824;BME280;11074;48.596;9.238;2023-02-18T07:54:23;99038.25;;;11.93;83.01
21824;BME280;11074;48.596;9.238;2023-02-18T07:56:49;99020.66;;;11.97;82.76
21824;BME280;11074;48.596;9.238;2023-02-18T07:59:15;99019.38;;;12.00;82.84
21824;BME280;11074;48.596;9.238;2023-02-18T08:01:41;99027.00;;;12.08;83.13
21824;BME280;11074;48.596;9.238;2023-02-18T08:04:07;99017.78;;;12.15;82.58
21824;BME280;11074;48.596;9.238;2023-02-18T08:06:37;99012.97;;;12.18;82.87
21824;BME280;11074;48.596;9.238;2023-02-18T08:09:04;99010.38;;;12.23;82.36
21824;BME280;11074;48.596;9.238;2023-02-18T08:11:30;99009.41;;;12.29;82.20
21824;BME280;11074;48.596;9.238;2023-02-18T08:13:56;99009.03;;;12.37;81.47
21824;BME280;11074;48.596;9.238;2023-02-18T08:16:22;99006.66;;;12.40;81.23
21824;BME280;11074;48.596;9.238;2023-02-18T08:18:50;99009.91;;;12.42;81.06
21824;BME280;11074;48.596;9.238;2023-02-18T08:21:19;99010.81;;;12.48;80.98
21824;BME280;11074;48.596;9.238;2023-02-18T08:23:46;99004.94;;;12.51;80.73
21824;BME280;11074;48.596;9.238;2023-02-18T08:26:12;99008.22;;;12.53;80.10
21824;BME280;11074;48.596;9.238;2023-02-18T08:28:38;99006.59;;;12.52;80.09
21824;BME280;11074;48.596;9.238;2023-02-18T08:31:04;98998.63;;;12.57;79.64
21824;BME280;11074;48.596;9.238;2023-02-18T08:33:31;98999.91;;;12.54;79.93
21824;BME280;11074;48.596;9.238;2023-02-18T08:35:57;98998.13;;;12.60;79.68
21824;BME280;11074;48.596;9.238;2023-02-18T08:38:23;99002.94;;;12.74;79.07
21824;BME280;11074;48.596;9.238;2023-02-18T08:40:50;99007.97;;;12.71;78.85
21824;BME280;11074;48.596;9.238;2023-02-18T08:43:17;99005.28;;;12.71;78.83
21824;BME280;11074;48.596;9.238;2023-02-18T08:45:43;99001.22;;;12.68;78.76
21824;BME280;11074;48.596;9.238;2023-02-18T08:48:12;99001.44;;;12.67;78.60
21824;BME280;11074;48.596;9.238;2023-02-18T08:50:38;99004.81;;;12.74;77.84
21824;BME280;11074;48.596;9.238;2023-02-18T08:53:04;99005.50;;;12.69;78.24
21824;BME280;11074;48.596;9.238;2023-02-18T08:55:32;99016.03;;;12.71;78.09
21824;BME280;11074;48.596;9.238;2023-02-18T08:57:59;98993.66;;;12.65;78.00
21824;BME280;11074;48.596;9.238;2023-02-18T09:00:26;99000.00;;;12.76;77.57
21824;BME280;11074;48.596;9.238;2023-02-18T09:02:52;98992.56;;;12.83;77.14
21824;BME280;11074;48.596;9.238;2023-02-18T09:05:18;99001.69;;;12.82;77.60
21824;BME280;11074;48.596;9.238;2023-02-18T09:07:43;98995.34;;;12.88;77.00
21824;BME280;11074;48.596;9.238;2023-02-18T09:10:09;98998.84;;;12.89;77.01
21824;BME280;11074;48.596;9.238;2023-02-18T09:12:35;98994.22;;;12.84;77.16
21824;BME280;11074;48.596;9.238;2023-02-18T09:15:01;98988.91;;;12.89;77.08
21824;BME280;11074;48.596;9.238;2023-02-18T09:17:28;98993.47;;;12.89;77.12
21824;BME280;11074;48.596;9.238;2023-02-18T09:19:53;98979.00;;;12.90;77.37
21824;BME280;11074;48.596;9.238;2023-02-18T09:22:19;98983.31;;;12.91;77.23
21824;BME280;11074;48.596;9.238;2023-02-18T09:24:45;98984.19;;;12.96;77.14
21824;BME280;11074;48.596;9.238;2023-02-18T09:27:11;98982.09;;;12.98;76.90
21824;BME280;11074;48.596;9.238;2023-02-18T09:29:39;98966.88;;;13.04;76.91
21824;BME280;11074;48.596;9.238;2023-02-18T09:32:07;98964.97;;;13.04;77.12
21824;BME280;11074;48.596;9.238;2023-02-18T09:34:34;98962.16;;;13.11;76.90
21824;BME280;11074;48.596;9.238;2023-02-18T09:37:00;98959.53;;;13.16;76.97
21824;BME280;11074;48.596;9.238;2023-02-18T09:39:26;98957.88;;;13.15;76.68
21824;BME280;11074;48.596;9.238;2023-02-18T09:41:56;98953.81;;;13.12;76.85
21824;BME280;11074;48.596;9.238;2023-02-18T09:45:02;98945.06;;;13.17;76.63
21824;BME280;11074;48.596;9.238;2023-02-18T09:47:41;98941.13;;;13.24;76.21
21824;BME280;11074;48.596;9.238;2023-02-18T09:50:20;98940.34;;;13.29;76.38
21824;BME280;11074;48.596;9.238;2023-02-18T09:52:46;98934.22;;;13.33;76.13
21824;BME280;11074;48.596;9.238;2023-02-18T09:55:34;98937.56;;;13.41;75.70
21824;BME280;11074;48.596;9.238;2023-02-18T09:58:10;98932.56;;;13.49;76.22
21824;BME280;11074;48.596;9.238;2023-02-18T10:00:42;98932.06;;;13.57;75.71
21824;BME280;11074;48.596;9.238;2023-02-18T10:03:21;98936.41;;;13.58;75.48
21824;BME280;11074;48.596;9.238;2023-02-18T10:05:57;98935.34;;;13.59;75.29
21824;BME280;11074;48.596;9.238;2023-02-18T10:08:45;98942.38;;;13.65;75.27
21824;BME280;11074;48.596;9.238;2023-02-18T10:11:28;98938.63;;;13.66;74.98
21824;BME280;11074;48.596;9.238;2023-02-18T10:13:56;98933.31;;;13.71;74.60
21824;BME280;11074;48.596;9.238;2023-02-18T10:16:24;98939.22;;;13.73;75.34
21824;BME280;11074;48.596;9.238;2023-02-18T10:18:55;98951.84;;;13.68;74.46
21824;BME280;11074;48.596;9.238;2023-02-18T10:21:29;98934.84;;;13.62;74.22
21824;BME280;11074;48.596;9.238;2023-02-18T10:24:30;98934.56;;;13.64;75.03
21824;BME280;11074;48.596;9.238;2023-02-18T10:26:57;98934.44;;;13.75;74.11
21824;BME280;11074;48.596;9.238;2023-02-18T10:29:24;98933.66;;;13.80;73.86
21824;BME280;11074;48.596;9.238;2023-02-18T10:32:23;98926.63;;;13.74;73.92
21824;BME280;11074;48.596;9.238;2023-02-18T10:35:16;98922.50;;;13.66;74.21
21824;BME280;11074;48.596;9.238;2023-02-18T10:38:37;98920.50;;;13.78;74.03
21824;BME280;11074;48.596;9.238;2023-02-18T10:41:28;98931.53;;;13.82;74.01
21824;BME280;11074;48.596;9.238;2023-02-18T10:50:08;98965.16;;;13.84;73.09
21824;BME280;11074;48.596;9.238;2023-02-18T10:52:49;98954.31;;;13.74;73.39
21824;BME280;11074;48.596;9.238;2023-02-18T10:55:16;98944.97;;;13.82;73.77
21824;BME280;11074;48.596;9.238;2023-02-18T10:57:53;98951.75;;;13.89;72.84
21824;BME280;11074;48.596;9.238;2023-02-18T11:00:25;98956.28;;;13.84;72.67
21824;BME280;11074;48.596;9.238;2023-02-18T11:03:18;98950.31;;;13.77;72.62
21824;BME280;11074;48.596;9.238;2023-02-18T11:05:47;98943.59;;;13.79;72.94
21824;BME280;11074;48.596;9.238;2023-02-18T11:08:24;98925.28;;;13.76;73.12
21824;BME280;11074;48.596;9.238;2023-02-18T11:10:50;98936.34;;;13.80;73.15
21824;BME280;11074;48.596;9.238;2023-02-18T11:13:27;98926.66;;;13.79;73.13
21824;BME280;11074;48.596;9.238;2023-02-18T11:16:04;98921.34;;;13.84;72.73
21824;BME280;11074;48.596;9.238;2023-02-18T11:18:40;98913.84;;;13.86;72.43
21824;BME280;11074;48.596;9.238;2023-02-18T11:21:33;98910.75;;;13.99;72.32
21824;BME280;11074;48.596;9.238;2023-02-18T11:24:09;98913.31;;;14.16;71.48
21824;BME280;11074;48.596;9.238;2023-02-18T11:26:40;98905.06;;;13.95;71.54
21824;BME280;11074;48.596;9.238;2023-02-18T11:29:19;98890.78;;;13.95;72.17
21824;BME280;11074;48.596;9.238;2023-02-18T11:31:50;98900.41;;;13.86;71.60
21824;BME280;11074;48.596;9.238;2023-02-18T11:34:30;98884.38;;;13.96;72.15
21824;BME280;11074;48.596;9.238;2023-02-18T11:37:18;98896.78;;;14.02;71.84
21824;BME280;11074;48.596;9.238;2023-02-18T11:39:48;98889.25;;;13.99;71.75
21824;BME280;11074;48.596;9.238;2023-02-18T11:42:19;98881.44;;;14.03;71.94
21824;BME280;11074;48.596;9.238;2023-02-18T11:47:32;98878.47;;;14.31;70.81
21824;BME280;11074;48.596;9.238;2023-02-18T11:50:21;98869.56;;;14.30;70.19
21824;BME280;11074;48.596;9.238;2023-02-18T11:52:49;98873.47;;;14.44;69.36
21824;BME280;11074;48.596;9.238;2023-02-18T11:55:29;98872.47;;;14.55;68.68
21824;BME280;11074;48.596;9.238;2023-02-18T11:58:03;98862.84;;;14.70;67.63
21824;BME280;11074;48.596;9.238;2023-02-18T12:00:43;98867.75;;;14.83;67.31
21824;BME280;11074;48.596;9.238;2023-02-18T12:03:41;98870.44;;;14.83;67.65
21824;BME280;11074;48.596;9.238;2023-02-18T12:06:19;98861.91;;;15.01;66.83
21824;BME280;11074;48.596;9.238;2023-02-18T12:09:05;98857.63;;;15.05;66.36
21824;BME280;11074;48.596;9.238;2023-02-18T12:14:00;98859.53;;;15.14;66.05
21824;BME280;11074;48.596;9.238;2023-02-18T12:17:20;98850.16;;;15.22;65.17
21824;BME280;11074;48.596;9.238;2023-02-18T12:20:18;98857.97;;;15.29;65.18
21824;BME280;11074;48.596;9.238;2023-02-18T12:23:01;98862.03;;;15.31;64.93
21824;BME280;11074;48.596;9.238;2023-02-18T12:25:53;98861.50;;;15.44;64.78
21824;BME280;11074;48.596;9.238;2023-02-18T12:29:02;98856.69;;;15.46;64.34
21824;BME280;11074;48.596;9.238;2023-02-18T12:31:37;98858.28;;;15.37;64.31
21824;BME280;11074;48.596;9.238;2023-02-18T12:40:39;98848.00;;;15.29;64.31
21824;BME280;11074;48.596;9.238;2023-02-18T12:43:32;98849.09;;;15.33;63.61
21824;BME280;11074;48.596;9.238;2023-02-18T12:46:20;98844.03;;;15.47;63.00
21824;BME280;11074;48.596;9.238;2023-02-18T12:49:09;98840.28;;;15.48;63.09
21824;BME280;11074;48.596;9.238;2023-02-18T12:52:08;98834.56;;;15.44;62.99
21824;BME280;11074;48.596;9.238;2023-02-18T13:06:47;98837.78;;;15.41;62.92
21824;BME280;11074;48.596;9.238;2023-02-18T13:15:20;98829.97;;;15.35;63.01
21824;BME280;11074;48.596;9.238;2023-02-18T13:17:50;98818.09;;;15.31;62.30
21824;BME280;11074;48.596;9.238;2023-02-18T13:20:34;98823.78;;;15.34;61.92
21824;BME280;11074;48.596;9.238;2023-02-18T13:23:02;98818.09;;;15.36;61.67
21824;BME280;11074;48.596;9.238;2023-02-18T13:25:36;98817.84;;;15.32;62.96
21824;BME280;11074;48.596;9.238;2023-02-18T13:31:18;98814.06;;;15.33;63.06
21824;BME280;11074;48.596;9.238;2023-02-18T13:36:54;98813.81;;;15.40;62.19
21824;BME280;11074;48.596;9.238;2023-02-18T13:39:22;98812.25;;;15.49;61.44
21824;BME280;11074;48.596;9.238;2023-02-18T13:41:51;98818.72;;;15.48;61.39
21824;BME280;11074;48.596;9.238;2023-02-18T13:47:45;98805.50;;;15.46;60.95
21824;BME280;11074;48.596;9.238;2023-02-18T13:55:52;98808.41;;;15.25;60.39
21824;BME280;11074;48.596;9.238;2023-02-18T13:58:31;98814.56;;;15.15;60.20
21824;BME280;11074;48.596;9.238;2023-02-18T14:01:35;98814.59;;;15.25;60.94
21824;BME280;11074;48.596;9.238;2023-02-18T14:04:02;98814.31;;;15.22;60.33
21824;BME280;11074;48.596;9.238;2023-02-18T14:06:35;98826.44;;;15.14;60.67
21824;BME280;11074;48.596;9.238;2023-02-18T14:12:23;98816.72;;;15.08;60.96
21824;BME280;11074;48.596;9.238;2023-02-18T14:14:50;98805.94;;;15.08;60.65
21824;BME280;11074;48.596;9.238;2023-02-18T14:20:21;98801.09;;;15.15;60.80
21824;BME280;11074;48.596;9.238;2023-02-18T14:22:46;98799.22;;;15.21;60.83
21824;BME280;11074;48.596;9.238;2023-02-18T14:27:45;98796.25;;;15.17;60.64
21824;BME280;11074;48.596;9.238;2023-02-18T14:32:50;98789.25;;;15.16;59.50
21824;BME280;11074;48.596;9.238;2023-02-18T14:35:55;98788.16;;;15.17;59.65
21824;BME280;11074;48.596;9.238;2023-02-18T14:38:49;98781.72;;;15.13;60.62
21824;BME280;11074;48.596;9.238;2023-02-18T14:41:31;98780.16;;;15.47;59.06
21824;BME280;11074;48.596;9.238;2023-02-18T14:44:42;98778.56;;;15.76;57.28
21824;BME280;11074;48.596;9.238;2023-02-18T14:47:31;98786.38;;;15.68;57.67
21824;BME280;11074;48.596;9.238;2023-02-18T14:50:04;98795.81;;;15.55;57.45
21824;BME280;11074;48.596;9.238;2023-02-18T14:52:53;98774.22;;;15.40;56.98
21824;BME280;11074;48.596;9.238;2023-02-18T14:55:34;98782.00;;;15.27;57.52